Time;durP1;ratioP1;P1;durP2;ratioP2;P2;SDS_P1;SDS_P2;PMS_P1;PMS_P2;Temp;Humidity;BMP_temperature;BMP_pressure;BME280_temperature;BME280_humidity;BME280_pressure;Samples;Min_cycle;Max_cycle;Signal;HPM_P1;HPM_P2
2021/11/22 00:00:41;;;;;;;16.63;13.35;;;7.90;99.90;;;;;;5083758;28;20235;-75
2021/11/22 00:03:13;;;;;;;15.32;13.25;;;7.90;99.90;;;;;;5091489;28;20227;-69
2021/11/22 00:05:43;;;;;;;15.15;13.65;;;7.80;99.90;;;;;;5092891;28;20306;-69
2021/11/22 00:08:15;;;;;;;20.73;15.32;;;7.70;99.90;;;;;;5094866;28;20216;-69
2021/11/22 00:10:46;;;;;;;15.63;14.00;;;7.70;99.90;;;;;;5109151;28;20215;-71
2021/11/22 00:13:17;;;;;;;22.67;15.77;;;7.60;99.90;;;;;;5092063;28;20248;-71
2021/11/22 00:15:51;;;;;;;19.85;15.45;;;7.60;99.90;;;;;;5102678;28;20234;-71
2021/11/22 00:18:22;;;;;;;17.52;15.25;;;7.50;99.90;;;;;;5097342;28;20281;-71
2021/11/22 00:20:53;;;;;;;18.27;15.30;;;7.50;99.90;;;;;;5108829;28;20748;-71
2021/11/22 00:23:24;;;;;;;16.20;14.30;;;7.40;99.90;;;;;;5105171;28;20285;-70
2021/11/22 00:25:55;;;;;;;17.70;14.82;;;7.30;99.90;;;;;;5089745;28;20213;-69
2021/11/22 00:28:26;;;;;;;18.95;15.88;;;7.20;99.90;;;;;;5091101;28;20239;-71
2021/11/22 00:30:58;;;;;;;20.40;15.85;;;7.20;99.90;;;;;;5100240;28;20603;-70
2021/11/22 00:33:29;;;;;;;27.15;18.17;;;7.10;99.90;;;;;;5095772;28;20679;-70
2021/11/22 00:36:01;;;;;;;19.13;17.02;;;7.10;99.90;;;;;;5087394;28;20207;-70
2021/11/22 00:38:32;;;;;;;18.08;16.17;;;7.10;99.90;;;;;;5104039;28;20221;-71
2021/11/22 00:41:02;;;;;;;19.50;17.42;;;7.00;99.90;;;;;;5094900;28;20216;-70
2021/11/22 00:43:33;;;;;;;22.75;17.50;;;6.90;99.90;;;;;;5099686;28;20558;-69
2021/11/22 00:46:07;;;;;;;22.30;17.75;;;6.80;99.90;;;;;;5096955;28;20774;-71
2021/11/22 00:48:39;;;;;;;21.17;17.23;;;6.70;99.90;;;;;;5079218;28;20212;-69
2021/11/22 00:51:10;;;;;;;24.58;19.15;;;6.70;99.90;;;;;;5104395;28;20236;-69
2021/11/22 00:53:41;;;;;;;24.40;19.83;;;6.60;99.90;;;;;;5101899;28;20240;-72
2021/11/22 00:56:16;;;;;;;25.35;20.48;;;6.50;99.90;;;;;;5091245;28;20216;-71
2021/11/22 00:58:47;;;;;;;24.10;19.20;;;6.50;99.90;;;;;;5091586;28;20287;-71
2021/11/22 01:01:20;;;;;;;26.20;20.38;;;6.50;99.90;;;;;;5087974;28;20226;-69
2021/11/22 01:03:51;;;;;;;25.00;20.83;;;6.50;99.90;;;;;;5084847;28;20281;-69
2021/11/22 01:06:22;;;;;;;25.23;20.98;;;6.40;99.90;;;;;;5090393;28;20212;-70
2021/11/22 01:08:53;;;;;;;25.55;20.35;;;6.30;99.90;;;;;;5102331;28;20218;-70
2021/11/22 01:11:24;;;;;;;24.23;20.60;;;6.20;99.90;;;;;;5091721;28;20310;-70
2021/11/22 01:13:55;;;;;;;23.00;20.58;;;6.10;99.90;;;;;;5091117;28;20212;-71
2021/11/22 01:16:29;;;;;;;22.25;19.02;;;6.00;99.90;;;;;;5097931;28;20322;-75
2021/11/22 01:19:02;;;;;;;21.25;18.67;;;5.90;99.90;;;;;;5103222;28;20216;-69
2021/11/22 01:21:33;;;;;;;24.40;20.98;;;5.90;99.90;;;;;;5091917;28;20220;-73
2021/11/22 01:24:04;;;;;;;22.38;18.73;;;5.80;99.90;;;;;;5090915;28;20311;-72
2021/11/22 01:26:35;;;;;;;25.25;20.55;;;5.80;99.90;;;;;;5087497;28;20267;-72
2021/11/22 01:29:06;;;;;;;24.23;20.85;;;5.70;99.90;;;;;;5083968;28;20246;-70
2021/11/22 01:31:39;;;;;;;26.63;20.40;;;5.70;99.90;;;;;;5104843;28;20220;-69
2021/11/22 01:34:10;;;;;;;23.55;19.58;;;5.70;99.90;;;;;;5090981;28;20304;-68
2021/11/22 01:36:41;;;;;;;25.77;20.42;;;5.70;99.90;;;;;;5097560;28;20211;-69
2021/11/22 01:39:12;;;;;;;24.40;20.58;;;5.60;99.90;;;;;;5097273;28;20224;-69
2021/11/22 01:41:43;;;;;;;22.90;20.30;;;5.60;99.90;;;;;;5090095;28;20220;-71
2021/11/22 01:44:13;;;;;;;22.25;19.55;;;5.50;99.90;;;;;;5094938;28;20230;-75
2021/11/22 01:46:48;;;;;;;23.60;19.45;;;5.50;99.90;;;;;;5100664;28;20296;-69
2021/11/22 01:49:20;;;;;;;23.10;18.42;;;5.50;99.90;;;;;;5090184;28;20208;-70
2021/11/22 01:51:51;;;;;;;24.13;18.83;;;5.50;99.90;;;;;;5100677;28;20254;-70
2021/11/22 01:54:22;;;;;;;28.33;20.08;;;5.40;99.90;;;;;;5092756;28;20212;-69
2021/11/22 01:56:53;;;;;;;26.17;20.85;;;5.40;99.90;;;;;;5099853;28;20247;-69
2021/11/22 01:59:24;;;;;;;25.15;20.73;;;5.30;99.90;;;;;;5094406;28;20228;-69
2021/11/22 02:01:56;;;;;;;25.40;21.45;;;5.30;99.90;;;;;;5089094;28;20224;-70
2021/11/22 02:04:27;;;;;;;26.23;22.10;;;5.30;99.90;;;;;;5088031;28;20224;-68
2021/11/22 02:06:58;;;;;;;27.75;23.52;;;5.30;99.90;;;;;;5098884;28;20232;-73
2021/11/22 02:09:29;;;;;;;27.70;21.60;;;5.20;99.90;;;;;;5097216;28;20308;-70
2021/11/22 02:12:01;;;;;;;28.10;23.92;;;5.20;99.90;;;;;;5098102;28;20235;-69
2021/11/22 02:14:32;;;;;;;39.25;26.63;;;5.10;99.90;;;;;;5090087;28;20310;-71
2021/11/22 02:17:07;;;;;;;75.10;34.95;;;5.10;99.90;;;;;;5098185;28;20216;-73
2021/11/22 02:19:52;;;;;;;48.45;28.33;;;5.20;99.90;;;;;;5098331;28;20622;-73
2021/11/22 02:22:24;;;;;;;30.15;25.15;;;5.10;99.90;;;;;;5099284;28;20221;-71
2021/11/22 02:24:54;;;;;;;29.00;25.90;;;5.10;99.90;;;;;;5098864;28;20220;-72
2021/11/22 02:27:26;;;;;;;31.88;26.20;;;5.00;99.90;;;;;;5082916;28;20238;-80
2021/11/22 02:29:56;;;;;;;30.88;26.83;;;5.00;99.90;;;;;;5089588;28;20323;-70
2021/11/22 02:32:28;;;;;;;32.08;25.65;;;4.90;99.90;;;;;;5088741;28;20624;-71
2021/11/22 02:35:01;;;;;;;33.20;27.70;;;4.90;99.90;;;;;;5087754;28;20212;-75
2021/11/22 02:37:32;;;;;;;39.00;30.95;;;4.80;99.90;;;;;;5090108;28;20216;-69
2021/11/22 02:40:03;;;;;;;39.05;30.10;;;4.80;99.90;;;;;;5080625;28;20585;-69
2021/11/22 02:42:35;;;;;;;39.97;33.90;;;4.80;99.90;;;;;;5106787;28;20247;-71
2021/11/22 02:45:06;;;;;;;40.78;33.50;;;4.80;99.90;;;;;;5099889;28;20234;-69
2021/11/22 02:47:37;;;;;;;47.70;38.88;;;4.70;99.90;;;;;;5109135;28;20678;-68
2021/11/22 02:50:11;;;;;;;46.45;37.40;;;4.70;99.90;;;;;;5084118;28;20259;-69
2021/11/22 02:52:43;;;;;;;44.22;34.75;;;4.70;99.90;;;;;;5100026;28;20211;-68
2021/11/22 02:55:16;;;;;;;46.65;37.75;;;4.70;99.90;;;;;;5109391;28;20204;-69
2021/11/22 02:57:47;;;;;;;42.38;34.80;;;4.60;99.90;;;;;;5088992;28;20294;-69
2021/11/22 03:00:22;;;;;;;46.45;37.10;;;4.60;99.90;;;;;;5103416;28;20212;-70
2021/11/22 03:02:53;;;;;;;45.88;39.47;;;4.60;99.90;;;;;;5096444;28;20227;-70
2021/11/22 03:05:27;;;;;;;45.22;38.60;;;4.60;99.90;;;;;;5095739;28;20231;-70
2021/11/22 03:07:59;;;;;;;53.78;45.10;;;4.50;99.90;;;;;;5098156;28;20230;-71
2021/11/22 03:10:31;;;;;;;53.58;44.25;;;4.60;99.90;;;;;;5093178;28;20223;-73
2021/11/22 03:13:02;;;;;;;52.65;41.92;;;4.50;99.90;;;;;;5106803;28;20246;-67
2021/11/22 03:15:34;;;;;;;51.85;45.72;;;4.50;99.90;;;;;;5101702;28;20311;-74
2021/11/22 03:18:05;;;;;;;77.88;64.45;;;4.40;99.90;;;;;;5078565;28;20212;-69
2021/11/22 03:20:38;;;;;;;72.78;58.65;;;4.50;99.90;;;;;;5101102;28;20212;-71
2021/11/22 03:23:08;;;;;;;76.07;64.43;;;4.50;99.90;;;;;;5077845;28;20673;-69
2021/11/22 03:25:39;;;;;;;73.25;63.05;;;4.40;99.90;;;;;;5092883;28;20224;-72
2021/11/22 03:28:11;;;;;;;52.92;47.30;;;4.50;99.90;;;;;;5076352;28;20298;-69
2021/11/22 03:30:42;;;;;;;59.95;51.53;;;4.50;99.90;;;;;;5092642;28;20315;-71
2021/11/22 03:33:18;;;;;;;35.58;30.67;;;4.50;99.90;;;;;;5099040;28;20239;-69
2021/11/22 03:35:54;;;;;;;47.15;38.20;;;4.60;99.90;;;;;;5090159;28;20300;-68
2021/11/22 03:38:28;;;;;;;46.53;40.47;;;4.60;99.90;;;;;;5100313;28;20221;-69
2021/11/22 03:41:00;;;;;;;37.70;31.17;;;4.60;99.90;;;;;;5100859;28;20320;-69
2021/11/22 03:43:36;;;;;;;31.75;28.48;;;4.50;99.90;;;;;;5107097;28;20568;-68
2021/11/22 03:46:06;;;;;;;28.52;22.60;;;4.50;99.90;;;;;;5097453;28;20223;-68
2021/11/22 03:48:37;;;;;;;23.80;19.25;;;4.50;99.90;;;;;;5101528;28;20241;-69
2021/11/22 03:51:10;;;;;;;21.55;18.08;;;4.50;99.90;;;;;;5092124;28;20226;-76
2021/11/22 03:53:41;;;;;;;19.85;17.90;;;4.50;99.90;;;;;;5113025;28;20212;-69
2021/11/22 03:56:12;;;;;;;21.55;18.77;;;4.50;99.90;;;;;;5094795;28;20215;-69
2021/11/22 03:58:43;;;;;;;22.45;19.00;;;4.50;99.90;;;;;;5100733;28;20220;-68
2021/11/22 04:01:14;;;;;;;22.33;15.20;;;4.50;99.90;;;;;;5101584;28;20206;-70
2021/11/22 04:03:45;;;;;;;17.02;15.20;;;4.40;99.90;;;;;;5112633;28;20215;-69
2021/11/22 04:06:17;;;;;;;18.88;15.95;;;4.40;99.90;;;;;;5104515;28;20227;-69
2021/11/22 04:08:48;;;;;;;15.38;13.90;;;4.40;99.90;;;;;;5092413;28;20708;-69
2021/11/22 04:11:19;;;;;;;14.00;12.57;;;4.40;99.90;;;;;;5087152;28;20212;-80
2021/11/22 04:13:51;;;;;;;13.07;11.77;;;4.40;99.90;;;;;;5104576;28;20247;-69
2021/11/22 04:16:23;;;;;;;14.00;12.18;;;4.40;99.90;;;;;;5090064;28;20213;-68
2021/11/22 04:18:54;;;;;;;15.77;12.20;;;4.40;99.90;;;;;;5082320;28;20743;-71
2021/11/22 04:21:26;;;;;;;15.10;12.63;;;4.30;99.90;;;;;;5086767;28;20658;-68
2021/11/22 04:23:58;;;;;;;12.00;10.73;;;4.30;99.90;;;;;;5092229;28;20248;-69
2021/11/22 04:26:29;;;;;;;9.82;8.40;;;4.20;99.90;;;;;;5097345;28;20224;-68
2021/11/22 04:29:00;;;;;;;10.90;9.85;;;4.30;99.90;;;;;;5090446;28;20255;-70
2021/11/22 04:31:31;;;;;;;22.10;17.52;;;4.40;99.90;;;;;;5091657;28;20223;-69
2021/11/22 04:34:02;;;;;;;30.02;24.92;;;4.50;99.90;;;;;;5082362;28;20694;-68
2021/11/22 04:36:34;;;;;;;31.52;24.95;;;4.60;99.90;;;;;;5089026;28;20223;-69
2021/11/22 04:39:05;;;;;;;37.67;26.30;;;4.60;99.90;;;;;;5107793;28;20208;-69
2021/11/22 04:41:36;;;;;;;31.75;26.88;;;4.60;99.90;;;;;;5101971;28;20223;-71
2021/11/22 04:44:07;;;;;;;31.75;26.10;;;4.40;99.90;;;;;;5100622;28;20585;-68
2021/11/22 04:46:38;;;;;;;36.40;27.27;;;4.30;99.90;;;;;;5091123;28;20537;-71
2021/11/22 04:49:09;;;;;;;36.25;26.60;;;4.20;99.90;;;;;;5082419;28;20652;-69
2021/11/22 04:51:41;;;;;;;44.38;29.10;;;4.20;99.90;;;;;;5088428;28;20217;-68
2021/11/22 04:54:12;;;;;;;43.95;30.75;;;4.20;99.90;;;;;;5091459;28;20220;-69
2021/11/22 04:56:43;;;;;;;33.17;26.73;;;4.10;99.90;;;;;;5079385;28;20589;-68
2021/11/22 04:59:14;;;;;;;45.03;27.33;;;4.10;99.90;;;;;;5091146;28;20208;-72
2021/11/22 05:01:45;;;;;;;45.50;27.25;;;4.10;99.90;;;;;;5087891;28;20299;-71
2021/11/22 05:04:16;;;;;;;51.95;25.25;;;4.20;99.90;;;;;;5091315;28;20227;-69
2021/11/22 05:06:49;;;;;;;64.63;26.67;;;4.10;99.90;;;;;;5090874;28;20230;-70
2021/11/22 05:09:20;;;;;;;75.97;29.67;;;4.20;99.90;;;;;;5094632;28;20222;-69
2021/11/22 05:11:52;;;;;;;34.30;25.58;;;4.20;99.90;;;;;;5094359;28;20639;-72
2021/11/22 05:14:23;;;;;;;44.70;25.08;;;4.10;99.90;;;;;;5101083;28;20212;-69
2021/11/22 05:16:55;;;;;;;55.70;27.00;;;4.10;99.90;;;;;;5091827;28;20701;-70
2021/11/22 05:19:30;;;;;;;55.05;25.60;;;4.10;99.90;;;;;;5084852;28;20212;-69
2021/11/22 05:22:03;;;;;;;44.22;27.30;;;4.20;99.90;;;;;;5090874;28;20232;-75
2021/11/22 05:24:34;;;;;;;35.35;24.83;;;4.30;99.90;;;;;;5100656;28;20664;-74
2021/11/22 05:27:05;;;;;;;47.20;24.67;;;4.30;99.90;;;;;;5096904;28;20220;-70
2021/11/22 05:29:37;;;;;;;71.18;27.73;;;4.30;99.90;;;;;;5087625;28;20236;-69
2021/11/22 05:32:08;;;;;;;42.70;23.38;;;4.30;99.90;;;;;;5089138;28;20221;-71
2021/11/22 05:34:39;;;;;;;62.95;25.60;;;4.30;99.90;;;;;;5088430;28;20212;-69
2021/11/22 05:37:11;;;;;;;33.00;21.45;;;4.40;99.90;;;;;;5095781;28;20215;-68
2021/11/22 05:39:42;;;;;;;33.17;21.73;;;4.30;99.90;;;;;;5105406;28;20331;-69
2021/11/22 05:42:13;;;;;;;34.25;21.60;;;4.30;99.90;;;;;;5092306;28;20679;-69
2021/11/22 05:44:45;;;;;;;47.88;23.92;;;4.30;99.90;;;;;;5088540;28;20222;-72
2021/11/22 05:47:16;;;;;;;37.47;24.63;;;4.30;99.90;;;;;;5091881;28;20643;-70
2021/11/22 05:49:48;;;;;;;43.42;23.75;;;4.30;99.90;;;;;;5085593;28;20260;-68
2021/11/22 05:52:20;;;;;;;49.25;23.85;;;4.30;99.90;;;;;;5090677;28;20265;-69
2021/11/22 05:54:52;;;;;;;75.05;26.75;;;4.30;99.90;;;;;;5089549;28;20586;-68
2021/11/22 05:57:23;;;;;;;37.53;22.42;;;4.30;99.90;;;;;;5087180;28;20660;-72
2021/11/22 05:59:54;;;;;;;67.32;24.77;;;4.20;99.90;;;;;;5089701;28;20228;-74
2021/11/22 06:02:25;;;;;;;82.07;24.70;;;4.30;99.90;;;;;;5076714;28;20208;-74
2021/11/22 06:04:56;;;;;;;58.60;24.13;;;4.20;99.90;;;;;;5096636;28;20266;-68
2021/11/22 06:07:29;;;;;;;76.20;26.65;;;4.10;99.90;;;;;;5090984;28;20231;-69
2021/11/22 06:10:00;;;;;;;47.45;24.17;;;4.20;99.90;;;;;;5086590;28;20214;-69
2021/11/22 06:12:31;;;;;;;42.90;25.48;;;4.30;99.90;;;;;;5094400;28;20307;-82
2021/11/22 06:15:02;;;;;;;56.63;27.63;;;4.30;99.90;;;;;;5074428;28;20295;-69
2021/11/22 06:17:33;;;;;;;63.50;26.70;;;4.30;99.90;;;;;;5076985;28;20204;-72
2021/11/22 06:20:04;;;;;;;49.67;25.70;;;4.30;99.90;;;;;;5071971;28;20224;-73
2021/11/22 06:22:37;;;;;;;54.95;27.83;;;4.30;99.90;;;;;;5090024;28;20623;-70
2021/11/22 06:25:09;;;;;;;76.05;27.60;;;4.30;99.90;;;;;;5074578;28;20217;-75
2021/11/22 06:27:40;;;;;;;29.70;22.73;;;4.30;99.90;;;;;;5097055;28;20340;-74
2021/11/22 06:30:11;;;;;;;55.03;26.15;;;4.30;99.90;;;;;;5095060;28;20250;-71
2021/11/22 06:32:42;;;;;;;43.78;24.02;;;4.30;99.90;;;;;;5100230;28;20282;-69
2021/11/22 06:35:13;;;;;;;45.97;23.67;;;4.30;99.90;;;;;;5104664;28;20310;-68
2021/11/22 06:37:45;;;;;;;58.28;25.75;;;4.20;99.90;;;;;;5111656;28;20208;-68
2021/11/22 06:40:16;;;;;;;32.38;25.38;;;4.10;99.90;;;;;;5102400;28;20260;-69
2021/11/22 06:42:48;;;;;;;37.20;24.60;;;4.10;99.90;;;;;;5102840;28;20207;-69
2021/11/22 06:45:19;;;;;;;35.30;23.17;;;4.20;99.90;;;;;;5111580;28;20557;-71
2021/11/22 06:47:50;;;;;;;45.85;27.52;;;4.20;99.90;;;;;;5109362;28;20306;-73
2021/11/22 06:50:21;;;;;;;41.28;25.15;;;4.30;99.90;;;;;;5100334;28;20230;-72
2021/11/22 06:52:53;;;;;;;51.65;25.42;;;4.20;99.90;;;;;;5093275;28;20650;-70
2021/11/22 06:55:24;;;;;;;65.80;24.63;;;4.30;99.90;;;;;;5091760;28;20752;-71
2021/11/22 06:57:55;;;;;;;81.28;27.00;;;4.30;99.90;;;;;;5092285;28;20224;-69
2021/11/22 07:00:26;;;;;;;37.75;24.35;;;4.30;99.90;;;;;;5101062;28;20207;-72
2021/11/22 07:02:57;;;;;;;39.58;22.70;;;4.30;99.90;;;;;;5103559;28;20654;-68
2021/11/22 07:05:29;;;;;;;39.70;21.75;;;4.30;99.90;;;;;;5101996;28;20224;-71
2021/11/22 07:08:04;;;;;;;35.97;21.50;;;4.30;99.90;;;;;;5077124;28;20221;-72
2021/11/22 07:10:35;;;;;;;30.20;19.92;;;4.20;99.90;;;;;;5108457;28;20219;-72
2021/11/22 07:13:06;;;;;;;40.90;20.55;;;4.20;99.90;;;;;;5091796;28;20219;-71
2021/11/22 07:15:37;;;;;;;57.78;21.90;;;4.20;99.90;;;;;;5092970;28;20216;-68
2021/11/22 07:18:08;;;;;;;44.63;21.73;;;4.10;99.90;;;;;;5087064;28;20204;-69
2021/11/22 07:20:39;;;;;;;42.25;20.80;;;4.00;99.90;;;;;;5092233;28;20623;-73
2021/11/22 07:23:13;;;;;;;24.70;17.80;;;4.00;99.90;;;;;;5104406;28;20212;-72
2021/11/22 07:25:45;;;;;;;40.88;20.20;;;4.00;99.90;;;;;;5093388;28;20209;-69
2021/11/22 07:28:15;;;;;;;74.07;20.98;;;3.90;99.90;;;;;;5097487;28;20316;-68
2021/11/22 07:30:47;;;;;;;61.75;21.00;;;3.80;99.90;;;;;;5113107;28;20222;-67
2021/11/22 07:33:18;;;;;;;53.15;19.83;;;3.70;99.90;;;;;;5103520;28;20216;-68
2021/11/22 07:35:49;;;;;;;35.35;17.15;;;3.70;99.90;;;;;;5103612;28;20242;-68
2021/11/22 07:38:22;;;;;;;41.65;18.80;;;3.60;99.90;;;;;;5101584;28;20715;-68
2021/11/22 07:40:55;;;;;;;49.35;20.38;;;3.60;99.90;;;;;;5096490;28;20226;-69
2021/11/22 07:43:26;;;;;;;50.40;18.70;;;3.50;99.90;;;;;;5108779;28;20666;-68
2021/11/22 07:45:57;;;;;;;36.05;18.80;;;3.50;99.90;;;;;;5106588;28;20220;-68
2021/11/22 07:48:30;;;;;;;38.80;18.20;;;3.50;99.90;;;;;;5087379;28;20237;-70
2021/11/22 07:51:02;;;;;;;39.60;18.75;;;3.60;99.90;;;;;;5089687;28;20216;-70
2021/11/22 07:53:39;;;;;;;43.70;18.45;;;3.70;99.90;;;;;;5091738;28;20234;-69
2021/11/22 07:56:10;;;;;;;67.32;19.90;;;3.70;99.90;;;;;;5107441;27;20212;-68
2021/11/22 07:58:42;;;;;;;110.80;27.27;;;3.70;99.90;;;;;;5086493;28;20209;-69
2021/11/22 08:01:12;;;;;;;48.13;18.42;;;3.60;99.90;;;;;;5105310;28;20204;-69
2021/11/22 08:03:44;;;;;;;28.52;16.60;;;3.40;99.90;;;;;;5102960;27;20208;-73
2021/11/22 08:06:15;;;;;;;34.38;16.85;;;3.40;99.90;;;;;;5088302;28;20295;-74
2021/11/22 08:08:48;;;;;;;26.10;16.13;;;3.40;99.90;;;;;;5091927;28;20315;-69
2021/11/22 08:11:31;;;;;;;28.30;16.13;;;3.50;99.90;;;;;;5090206;28;20213;-69
2021/11/22 08:14:02;;;;;;;31.02;17.02;;;3.50;99.90;;;;;;5094130;28;20549;-69
2021/11/22 08:16:34;;;;;;;41.63;17.27;;;3.50;99.90;;;;;;5098319;28;20217;-69
2021/11/22 08:19:05;;;;;;;84.07;21.90;;;3.50;99.90;;;;;;5091158;28;20212;-69
2021/11/22 08:21:37;;;;;;;33.08;17.15;;;3.40;99.90;;;;;;5089701;28;20574;-69
2021/11/22 08:24:10;;;;;;;65.25;20.38;;;3.40;99.90;;;;;;5100225;28;20231;-68
2021/11/22 08:26:40;;;;;;;35.13;16.40;;;3.30;99.90;;;;;;5089052;28;20215;-71
2021/11/22 08:29:11;;;;;;;39.80;16.65;;;3.30;99.90;;;;;;5079115;28;20246;-69
2021/11/22 08:31:42;;;;;;;40.30;18.00;;;3.30;99.90;;;;;;5114235;28;20295;-68
2021/11/22 08:34:16;;;;;;;42.92;18.80;;;3.30;99.90;;;;;;5100069;28;20212;-68
2021/11/22 08:36:47;;;;;;;41.08;17.83;;;3.20;99.90;;;;;;5081480;28;20298;-69
2021/11/22 08:39:20;;;;;;;97.07;21.65;;;3.20;99.90;;;;;;5093780;28;20567;-70
2021/11/22 08:41:51;;;;;;;54.35;20.02;;;3.10;99.90;;;;;;5089495;28;20664;-70
2021/11/22 08:44:22;;;;;;;60.63;17.23;;;3.20;99.90;;;;;;5109667;28;20223;-71
2021/11/22 08:46:53;;;;;;;97.53;22.50;;;3.20;99.90;;;;;;5092927;28;20219;-69
2021/11/22 08:49:24;;;;;;;70.28;19.85;;;3.20;99.90;;;;;;5087675;28;20226;-73
2021/11/22 08:51:58;;;;;;;70.88;20.83;;;3.30;99.90;;;;;;5090887;28;20227;-69
2021/11/22 08:54:31;;;;;;;32.85;16.88;;;3.40;99.90;;;;;;5091148;28;20219;-69
2021/11/22 08:57:02;;;;;;;50.20;19.67;;;3.40;99.90;;;;;;5110005;28;20204;-71
2021/11/22 08:59:34;;;;;;;77.32;20.55;;;3.40;99.90;;;;;;5096355;28;20295;-69
2021/11/22 09:02:05;;;;;;;27.08;17.23;;;3.30;99.90;;;;;;5108637;28;20551;-71
2021/11/22 09:04:37;;;;;;;50.15;20.20;;;3.20;99.90;;;;;;5108485;28;20657;-69
2021/11/22 09:07:08;;;;;;;40.22;19.95;;;3.30;99.90;;;;;;5102777;28;20214;-71
2021/11/22 09:09:41;;;;;;;34.83;16.70;;;3.40;99.90;;;;;;5109780;28;20671;-70
2021/11/22 09:12:12;;;;;;;35.65;17.00;;;3.40;99.90;;;;;;5111469;28;20219;-70
2021/11/22 09:14:43;;;;;;;36.42;15.68;;;3.30;99.90;;;;;;5096148;28;20204;-69
2021/11/22 09:17:17;;;;;;;45.60;17.20;;;3.30;99.90;;;;;;5093411;28;20259;-70
2021/11/22 09:19:48;;;;;;;38.20;15.60;;;3.40;99.90;;;;;;5097684;28;20606;-71
2021/11/22 09:22:21;;;;;;;50.38;17.17;;;3.50;99.90;;;;;;5098265;28;20212;-70
2021/11/22 09:24:54;;;;;;;30.05;15.85;;;3.40;99.90;;;;;;5099882;28;20212;-69
2021/11/22 09:27:25;;;;;;;47.17;16.95;;;3.50;99.90;;;;;;5089377;28;20694;-68
2021/11/22 09:30:00;;;;;;;95.15;20.52;;;3.30;99.90;;;;;;5087761;28;21327;-69
2021/11/22 09:32:31;;;;;;;73.60;18.40;;;3.40;99.90;;;;;;5096287;28;20223;-69
2021/11/22 09:35:02;;;;;;;35.03;15.68;;;3.40;99.90;;;;;;5095560;28;20273;-71
2021/11/22 09:37:34;;;;;;;45.58;19.15;;;3.30;99.90;;;;;;5114223;28;20238;-70
2021/11/22 09:40:09;;;;;;;83.43;19.75;;;3.40;99.90;;;;;;5105302;28;20219;-73
2021/11/22 09:42:40;;;;;;;106.43;25.15;;;3.50;99.90;;;;;;5105361;28;20219;-71
2021/11/22 09:45:13;;;;;;;146.55;24.50;;;3.40;99.90;;;;;;5096568;28;20577;-70
2021/11/22 09:47:44;;;;;;;65.20;17.83;;;3.30;99.90;;;;;;5094318;28;20216;-70
2021/11/22 09:50:16;;;;;;;64.88;17.83;;;3.20;99.90;;;;;;5075824;28;20232;-69
2021/11/22 09:52:47;;;;;;;109.15;21.27;;;3.30;99.90;;;;;;5098765;28;20697;-71
2021/11/22 09:55:19;;;;;;;66.85;18.60;;;3.20;99.90;;;;;;5097075;28;20216;-71
2021/11/22 09:57:51;;;;;;;69.22;18.58;;;3.20;99.90;;;;;;5099993;28;20740;-74
2021/11/22 10:00:21;;;;;;;38.20;16.75;;;3.10;99.90;;;;;;5094833;28;20218;-70
2021/11/22 10:02:58;;;;;;;61.10;17.80;;;3.00;99.90;;;;;;5097582;28;20650;-72
2021/11/22 10:05:31;;;;;;;60.90;18.83;;;3.10;99.90;;;;;;5098575;28;20652;-71
2021/11/22 10:08:08;;;;;;;64.53;18.58;;;3.20;99.90;;;;;;5090657;28;20665;-71
2021/11/22 10:10:43;;;;;;;65.63;17.25;;;3.30;99.90;;;;;;5104770;28;20215;-70
2021/11/22 10:13:26;;;;;;;48.65;19.52;;;3.20;99.90;;;;;;5082651;28;20218;-70
2021/11/22 10:15:59;;;;;;;72.68;20.55;;;3.30;99.90;;;;;;5082271;28;20212;-70
2021/11/22 10:18:31;;;;;;;58.55;19.60;;;3.40;99.90;;;;;;5088974;28;20745;-69
2021/11/22 10:21:07;;;;;;;74.18;17.52;;;3.40;99.90;;;;;;5085936;28;20216;-70
2021/11/22 10:23:40;;;;;;;59.75;17.90;;;3.40;99.90;;;;;;5094412;28;20541;-70
2021/11/22 10:26:15;;;;;;;43.42;16.00;;;3.40;99.90;;;;;;5090829;28;20218;-69
2021/11/22 10:28:47;;;;;;;51.83;16.65;;;3.30;99.90;;;;;;5102420;28;20331;-73
2021/11/22 10:31:22;;;;;;;86.57;19.77;;;3.30;99.90;;;;;;5098837;28;20218;-69
2021/11/22 10:33:54;;;;;;;118.15;24.48;;;3.20;99.90;;;;;;5116329;28;20215;-70
2021/11/22 10:36:26;;;;;;;108.68;21.10;;;3.30;99.90;;;;;;5093612;28;20230;-69
2021/11/22 10:39:00;;;;;;;45.25;17.95;;;3.40;99.90;;;;;;5098228;28;20213;-69
2021/11/22 10:41:34;;;;;;;53.72;15.75;;;3.40;99.90;;;;;;5094551;28;20214;-69
2021/11/22 10:44:07;;;;;;;53.60;17.83;;;3.40;99.90;;;;;;5096576;28;20835;-71
2021/11/22 10:46:41;;;;;;;43.17;17.00;;;3.50;99.90;;;;;;5115555;28;20599;-69
2021/11/22 10:49:13;;;;;;;55.80;19.25;;;3.50;99.90;;;;;;5091485;28;20594;-74
2021/11/22 10:51:46;;;;;;;33.17;15.25;;;3.40;99.90;;;;;;5089837;28;20231;-70
2021/11/22 10:54:19;;;;;;;75.18;18.70;;;3.40;99.90;;;;;;5106629;28;20640;-70
2021/11/22 10:56:53;;;;;;;43.70;14.13;;;3.40;99.90;;;;;;5090665;28;20213;-70
2021/11/22 10:59:26;;;;;;;37.92;15.48;;;3.30;99.90;;;;;;5093829;28;20208;-72
2021/11/22 11:01:58;;;;;;;42.17;15.98;;;3.30;99.90;;;;;;5111395;28;20318;-70
2021/11/22 11:04:37;;;;;;;30.50;14.70;;;3.30;99.90;;;;;;5098057;28;20212;-69
2021/11/22 11:07:10;;;;;;;25.65;13.50;;;3.40;99.90;;;;;;5093816;28;20208;-70
2021/11/22 11:09:42;;;;;;;36.33;14.50;;;3.40;99.90;;;;;;5104583;28;20220;-69
2021/11/22 11:12:18;;;;;;;24.55;12.45;;;3.40;99.90;;;;;;5099978;28;20211;-70
2021/11/22 11:14:50;;;;;;;38.10;15.60;;;3.30;99.90;;;;;;5101938;28;20216;-68
2021/11/22 11:17:24;;;;;;;29.75;14.23;;;3.30;99.90;;;;;;5082093;28;20757;-68
2021/11/22 11:19:57;;;;;;;22.58;13.60;;;3.40;99.90;;;;;;5090390;28;20693;-68
2021/11/22 11:22:29;;;;;;;459.80;94.13;;;3.40;99.90;;;;;;5087822;28;20216;-68
2021/11/22 11:25:00;;;;;;;238.35;43.35;;;3.40;99.90;;;;;;5092683;28;20256;-68
2021/11/22 11:27:43;;;;;;;34.80;14.82;;;3.40;99.90;;;;;;5098805;28;20224;-67
2021/11/22 11:30:17;;;;;;;27.90;14.68;;;3.50;99.90;;;;;;5085608;28;20236;-68
2021/11/22 11:32:49;;;;;;;19.15;13.43;;;3.40;99.90;;;;;;5093665;28;20578;-70
2021/11/22 11:35:21;;;;;;;24.77;15.63;;;3.50;99.90;;;;;;5101716;28;20705;-68
2021/11/22 11:38:05;;;;;;;19.02;13.98;;;3.50;99.90;;;;;;5090735;28;20209;-69
2021/11/22 11:40:55;;;;;;;30.00;15.90;;;3.50;99.90;;;;;;5081932;28;20227;-68
2021/11/22 11:44:07;;;;;;;34.33;13.77;;;3.60;99.90;;;;;;5093013;28;20247;-68
2021/11/22 11:47:21;;;;;;;27.60;13.70;;;3.60;99.90;;;;;;5097083;28;20212;-69
2021/11/22 11:49:52;;;;;;;27.90;14.05;;;3.50;99.90;;;;;;5093364;28;20232;-68
2021/11/22 11:52:25;;;;;;;19.17;12.60;;;3.40;99.90;;;;;;5097291;28;20220;-68
2021/11/22 11:54:58;;;;;;;27.83;12.95;;;3.30;99.90;;;;;;5109558;28;20714;-68
2021/11/22 11:57:32;;;;;;;25.58;12.27;;;3.30;99.90;;;;;;5097682;28;20208;-68
2021/11/22 12:00:24;;;;;;;66.97;17.60;;;3.30;99.90;;;;;;5100083;27;20753;-68
2021/11/22 12:03:05;;;;;;;29.15;12.52;;;3.20;99.90;;;;;;5105772;28;20218;-68
2021/11/22 12:05:53;;;;;;;69.35;15.05;;;3.10;99.90;;;;;;5100633;28;20565;-68
2021/11/22 12:08:27;;;;;;;43.90;12.48;;;3.10;99.90;;;;;;5086315;28;20308;-68
2021/11/22 12:11:00;;;;;;;27.20;12.30;;;3.10;99.90;;;;;;5089162;28;20304;-68
2021/11/22 12:13:48;;;;;;;35.20;14.65;;;3.30;99.90;;;;;;5092510;28;20208;-68
2021/11/22 12:16:44;;;;;;;24.55;13.02;;;3.20;99.90;;;;;;5085662;28;20215;-68
2021/11/22 12:19:40;;;;;;;47.30;16.10;;;3.20;99.90;;;;;;5083182;28;20223;-67
2021/11/22 12:22:14;;;;;;;67.65;18.67;;;3.30;99.90;;;;;;5084002;28;20212;-68
2021/11/22 12:24:47;;;;;;;26.17;14.40;;;3.30;99.90;;;;;;5090442;28;20572;-68
2021/11/22 12:27:38;;;;;;;50.83;14.65;;;3.30;99.90;;;;;;5100757;28;20302;-68
2021/11/22 12:30:38;;;;;;;32.70;14.60;;;3.30;99.90;;;;;;5097219;28;20231;-69
2021/11/22 12:33:36;;;;;;;36.70;15.73;;;3.30;99.90;;;;;;5081144;28;20208;-68
2021/11/22 12:36:29;;;;;;;27.42;14.65;;;3.40;99.90;;;;;;5111117;28;20665;-68
2021/11/22 12:39:08;;;;;;;53.33;17.67;;;3.40;99.90;;;;;;5101076;28;20244;-68
2021/11/22 12:41:50;;;;;;;22.02;14.80;;;3.50;99.90;;;;;;5078756;28;20204;-68
2021/11/22 12:44:22;;;;;;;41.33;17.17;;;3.50;99.90;;;;;;5096830;28;20226;-69
2021/11/22 12:46:57;;;;;;;20.20;12.88;;;3.50;99.90;;;;;;5098532;28;20220;-68
2021/11/22 12:49:37;;;;;;;50.47;17.42;;;3.40;99.90;;;;;;5077737;28;20212;-68
2021/11/22 12:52:23;;;;;;;22.45;12.95;;;3.40;99.90;;;;;;5109405;28;20298;-68
2021/11/22 12:54:58;;;;;;;25.92;12.80;;;3.20;99.90;;;;;;5089389;28;20581;-68
2021/11/22 12:57:31;;;;;;;25.35;13.23;;;3.20;99.90;;;;;;5104744;28;20231;-68
2021/11/22 13:00:37;;;;;;;58.10;15.85;;;3.20;99.90;;;;;;5089977;28;20215;-68
2021/11/22 13:03:11;;;;;;;128.98;26.55;;;3.10;99.90;;;;;;5091196;28;20260;-68
2021/11/22 13:06:06;;;;;;;48.95;14.25;;;3.20;99.90;;;;;;5094692;28;20557;-68